sensor_id;sensor_type;location;lat;lon;timestamp;temperature;humidity
45906;DHT22;31619;49.008;12.106;2023-04-06T00:01:10;0.20;99.90
45906;DHT22;31619;49.008;12.106;2023-04-06T00:03:35;0.20;99.90
45906;DHT22;31619;49.008;12.106;2023-04-06T00:06:01;0.30;99.90
45906;DHT22;31619;49.008;12.106;2023-04-06T00:08:27;0.20;99.90
45906;DHT22;31619;49.008;12.106;2023-04-06T00:10:53;0.10;99.90
45906;DHT22;31619;49.008;12.106;2023-04-06T00:13:18;0.10;99.90
45906;DHT22;31619;49.008;12.106;2023-04-06T00:15:44;0.10;99.90
45906;DHT22;31619;49.008;12.106;2023-04-06T00:18:10;0.10;99.90
45906;DHT22;31619;49.008;12.106;2023-04-06T00:20:35;0.10;99.90
45906;DHT22;31619;49.008;12.106;2023-04-06T00:23:01;0.10;99.90
45906;DHT22;31619;49.008;12.106;2023-04-06T00:25:27;0.10;99.90
45906;DHT22;31619;49.008;12.106;2023-04-06T00:27:52;0.00;99.90
45906;DHT22;31619;49.008;12.106;2023-04-06T00:30:18;0.10;99.90
45906;DHT22;31619;49.008;12.106;2023-04-06T00:32:44;0.10;99.90
45906;DHT22;31619;49.008;12.106;2023-04-06T00:35:10;0.20;99.90
45906;DHT22;31619;49.008;12.106;2023-04-06T00:37:36;0.30;99.90
45906;DHT22;31619;49.008;12.106;2023-04-06T00:40:02;0.30;99.90
45906;DHT22;31619;49.008;12.106;2023-04-06T00:42:27;0.30;99.90
45906;DHT22;31619;49.008;12.106;2023-04-06T00:44:55;0.20;99.90
45906;DHT22;31619;49.008;12.106;2023-04-06T00:47:22;0.20;99.90
45906;DHT22;31619;49.008;12.106;2023-04-06T00:49:48;0.20;99.90
45906;DHT22;31619;49.008;12.106;2023-04-06T00:52:13;0.20;99.90
45906;DHT22;31619;49.008;12.106;2023-04-06T00:54:39;0.10;99.90
45906;DHT22;31619;49.008;12.106;2023-04-06T00:57:05;0.10;99.90
45906;DHT22;31619;49.008;12.106;2023-04-06T00:59:31;0.10;99.90
45906;DHT22;31619;49.008;12.106;2023-04-06T01:01:57;0.10;99.90
45906;DHT22;31619;49.008;12.106;2023-04-06T01:04:23;0.10;99.90
45906;DHT22;31619;49.008;12.106;2023-04-06T01:06:49;0.00;99.90
45906;DHT22;31619;49.008;12.106;2023-04-06T01:09:18;0.00;99.90
45906;DHT22;31619;49.008;12.106;2023-04-06T01:11:44;-0.10;99.90
45906;DHT22;31619;49.008;12.106;2023-04-06T01:14:10;-0.20;99.90
45906;DHT22;31619;49.008;12.106;2023-04-06T01:16:36;-0.20;99.90
45906;DHT22;31619;49.008;12.106;2023-04-06T01:19:11;-0.10;99.90
45906;DHT22;31619;49.008;12.106;2023-04-06T01:21:37;-0.10;99.90
45906;DHT22;31619;49.008;12.106;2023-04-06T01:24:03;-0.10;99.90
45906;DHT22;31619;49.008;12.106;2023-04-06T01:26:30;-0.10;99.90
45906;DHT22;31619;49.008;12.106;2023-04-06T01:28:56;-0.10;99.90
45906;DHT22;31619;49.008;12.106;2023-04-06T01:31:22;-0.10;99.90
45906;DHT22;31619;49.008;12.106;2023-04-06T01:33:48;-0.20;99.90
45906;DHT22;31619;49.008;12.106;2023-04-06T01:36:14;-0.30;99.90
45906;DHT22;31619;49.008;12.106;2023-04-06T01:38:40;-0.30;99.90
45906;DHT22;31619;49.008;12.106;2023-04-06T01:41:07;-0.30;99.90
45906;DHT22;31619;49.008;12.106;2023-04-06T01:43:33;-0.40;99.90
45906;DHT22;31619;49.008;12.106;2023-04-06T01:45:59;-0.40;99.90
45906;DHT22;31619;49.008;12.106;2023-04-06T01:48:25;-0.50;99.90
45906;DHT22;31619;49.008;12.106;2023-04-06T01:50:51;-0.50;99.90
45906;DHT22;31619;49.008;12.106;2023-04-06T01:53:17;-0.50;99.90
45906;DHT22;31619;49.008;12.106;2023-04-06T01:55:42;-0.60;99.90
45906;DHT22;31619;49.008;12.106;2023-04-06T01:58:08;-0.60;99.90
45906;DHT22;31619;49.008;12.106;2023-04-06T02:00:33;-0.50;99.90
45906;DHT22;31619;49.008;12.106;2023-04-06T02:02:59;-0.50;99.90
45906;DHT22;31619;49.008;12.106;2023-04-06T02:05:25;-0.40;99.90
45906;DHT22;31619;49.008;12.106;2023-04-06T02:07:51;-0.30;99.90
45906;DHT22;31619;49.008;12.106;2023-04-06T02:10:17;-0.30;99.90
45906;DHT22;31619;49.008;12.106;2023-04-06T02:12:43;-0.30;99.90
45906;DHT22;31619;49.008;12.106;2023-04-06T02:15:09;-0.30;99.90
45906;DHT22;31619;49.008;12.106;2023-04-06T02:17:35;-0.30;99.90
45906;DHT22;31619;49.008;12.106;2023-04-06T02:20:00;-0.30;99.90
45906;DHT22;31619;49.008;12.106;2023-04-06T02:22:26;-0.40;99.90
45906;DHT22;31619;49.008;12.106;2023-04-06T02:24:51;-0.30;99.90
45906;DHT22;31619;49.008;12.106;2023-04-06T02:27:17;-0.30;99.90
45906;DHT22;31619;49.008;12.106;2023-04-06T02:29:43;-0.20;99.90
45906;DHT22;31619;49.008;12.106;2023-04-06T02:32:08;-0.20;99.90
45906;DHT22;31619;49.008;12.106;2023-04-06T02:34:34;-0.30;99.90
45906;DHT22;31619;49.008;12.106;2023-04-06T02:37:00;-0.30;99.90
45906;DHT22;31619;49.008;12.106;2023-04-06T02:39:25;-0.30;99.90
45906;DHT22;31619;49.008;12.106;2023-04-06T02:41:51;-0.40;99.90
45906;DHT22;31619;49.008;12.106;2023-04-06T02:44:18;-0.40;99.90
45906;DHT22;31619;49.008;12.106;2023-04-06T02:46:43;-0.40;99.90
45906;DHT22;31619;49.008;12.106;2023-04-06T02:49:09;-0.40;99.90
45906;DHT22;31619;49.008;12.106;2023-04-06T02:51:35;-0.50;99.90
45906;DHT22;31619;49.008;12.106;2023-04-06T02:54:00;-0.50;99.90
45906;DHT22;31619;49.008;12.106;2023-04-06T02:56:26;-0.50;99.90
45906;DHT22;31619;49.008;12.106;2023-04-06T02:58:52;-0.50;99.90
45906;DHT22;31619;49.008;12.106;2023-04-06T03:01:17;-0.50;99.90
45906;DHT22;31619;49.008;12.106;2023-04-06T03:03:43;-0.60;99.90
45906;DHT22;31619;49.008;12.106;2023-04-06T03:06:09;-0.60;99.90
45906;DHT22;31619;49.008;12.106;2023-04-06T03:08:34;-0.60;99.90
45906;DHT22;31619;49.008;12.106;2023-04-06T03:11:00;-0.60;99.90
45906;DHT22;31619;49.008;12.106;2023-04-06T03:13:26;-0.60;99.90
45906;DHT22;31619;49.008;12.106;2023-04-06T03:15:51;-0.70;99.90
45906;DHT22;31619;49.008;12.106;2023-04-06T03:18:21;-0.70;99.90
45906;DHT22;31619;49.008;12.106;2023-04-06T03:20:48;-0.70;99.90
45906;DHT22;31619;49.008;12.106;2023-04-06T03:23:14;-0.70;99.90
45906;DHT22;31619;49.008;12.106;2023-04-06T03:25:39;-0.80;99.90
45906;DHT22;31619;49.008;12.106;2023-04-06T03:28:05;-0.80;99.90
45906;DHT22;31619;49.008;12.106;2023-04-06T03:30:30;-0.90;99.90
45906;DHT22;31619;49.008;12.106;2023-04-06T03:32:56;-0.90;99.90
45906;DHT22;31619;49.008;12.106;2023-04-06T03:35:22;-0.90;99.90
45906;DHT22;31619;49.008;12.106;2023-04-06T03:37:47;-0.90;99.90
45906;DHT22;31619;49.008;12.106;2023-04-06T03:40:13;-0.90;99.90
45906;DHT22;31619;49.008;12.106;2023-04-06T03:42:38;-0.90;99.90
45906;DHT22;31619;49.008;12.106;2023-04-06T03:45:05;-0.90;99.90
45906;DHT22;31619;49.008;12.106;2023-04-06T03:47:30;-0.90;99.90
45906;DHT22;31619;49.008;12.106;2023-04-06T03:49:56;-0.90;99.90
45906;DHT22;31619;49.008;12.106;2023-04-06T03:52:22;-0.90;99.90
45906;DHT22;31619;49.008;12.106;2023-04-06T03:54:48;-0.90;99.90
45906;DHT22;31619;49.008;12.106;2023-04-06T03:57:14;-0.80;99.90
45906;DHT22;31619;49.008;12.106;2023-04-06T03:59:39;-0.80;99.90
45906;DHT22;31619;49.008;12.106;2023-04-06T04:02:05;-0.90;99.90
45906;DHT22;31619;49.008;12.106;2023-04-06T04:04:31;-0.90;99.90
45906;DHT22;31619;49.008;12.106;2023-04-06T04:06:56;-0.90;99.90
45906;DHT22;31619;49.008;12.106;2023-04-06T04:09:22;-1.00;99.90
45906;DHT22;31619;49.008;12.106;2023-04-06T04:11:47;-1.00;99.90
45906;DHT22;31619;49.008;12.106;2023-04-06T04:14:13;-1.10;99.90
45906;DHT22;31619;49.008;12.106;2023-04-06T04:16:39;-1.10;99.90
45906;DHT22;31619;49.008;12.106;2023-04-06T04:19:05;-1.20;99.90
45906;DHT22;31619;49.008;12.106;2023-04-06T04:21:31;-1.10;99.90
45906;DHT22;31619;49.008;12.106;2023-04-06T04:23:57;-1.10;99.90
45906;DHT22;31619;49.008;12.106;2023-04-06T04:26:23;-1.10;99.90
45906;DHT22;31619;49.008;12.106;2023-04-06T04:28:48;-1.10;99.90
45906;DHT22;31619;49.008;12.106;2023-04-06T04:31:14;-1.10;99.90
45906;DHT22;31619;49.008;12.106;2023-04-06T04:33:39;-1.00;99.90
45906;DHT22;31619;49.008;12.106;2023-04-06T04:36:05;-1.00;99.90
45906;DHT22;31619;49.008;12.106;2023-04-06T04:38:31;-1.00;99.90
45906;DHT22;31619;49.008;12.106;2023-04-06T04:40:56;-1.00;99.90
45906;DHT22;31619;49.008;12.106;2023-04-06T04:43:22;-0.90;99.90
45906;DHT22;31619;49.008;12.106;2023-04-06T04:45:48;-0.90;99.90
45906;DHT22;31619;49.008;12.106;2023-04-06T04:48:13;-0.90;99.90
45906;DHT22;31619;49.008;12.106;2023-04-06T04:50:39;-0.90;99.90
45906;DHT22;31619;49.008;12.106;2023-04-06T04:53:05;-0.90;99.90
45906;DHT22;31619;49.008;12.106;2023-04-06T04:55:31;-0.90;99.90
45906;DHT22;31619;49.008;12.106;2023-04-06T04:57:57;-1.00;99.90
45906;DHT22;31619;49.008;12.106;2023-04-06T05:00:22;-1.00;99.90
45906;DHT22;31619;49.008;12.106;2023-04-06T05:02:48;-0.90;99.90
45906;DHT22;31619;49.008;12.106;2023-04-06T05:05:14;-0.90;99.90
45906;DHT22;31619;49.008;12.106;2023-04-06T05:07:40;-0.80;99.90
45906;DHT22;31619;49.008;12.106;2023-04-06T05:10:06;-0.70;99.90
45906;DHT22;31619;49.008;12.106;2023-04-06T05:12:31;-0.70;99.90
45906;DHT22;31619;49.008;12.106;2023-04-06T05:14:57;-0.50;99.90
45906;DHT22;31619;49.008;12.106;2023-04-06T05:17:23;-0.30;99.90
45906;DHT22;31619;49.008;12.106;2023-04-06T05:19:48;-0.20;99.90
45906;DHT22;31619;49.008;12.106;2023-04-06T05:22:14;-0.10;99.90
45906;DHT22;31619;49.008;12.106;2023-04-06T05:24:43;0.00;99.90
45906;DHT22;31619;49.008;12.106;2023-04-06T05:27:08;0.10;99.90
45906;DHT22;31619;49.008;12.106;2023-04-06T05:29:34;0.10;99.90
45906;DHT22;31619;49.008;12.106;2023-04-06T05:32:00;0.20;99.90
45906;DHT22;31619;49.008;12.106;2023-04-06T05:34:26;0.10;99.90
45906;DHT22;31619;49.008;12.106;2023-04-06T05:36:51;0.10;99.90
45906;DHT22;31619;49.008;12.106;2023-04-06T05:39:17;0.10;99.90
45906;DHT22;31619;49.008;12.106;2023-04-06T05:41:43;0.10;99.90
45906;DHT22;31619;49.008;12.106;2023-04-06T05:44:08;0.10;99.90
45906;DHT22;31619;49.008;12.106;2023-04-06T05:46:34;0.20;99.90
45906;DHT22;31619;49.008;12.106;2023-04-06T05:49:00;0.30;99.90
45906;DHT22;31619;49.008;12.106;2023-04-06T05:51:25;0.30;99.90
45906;DHT22;31619;49.008;12.106;2023-04-06T05:53:52;0.40;99.90
45906;DHT22;31619;49.008;12.106;2023-04-06T05:56:18;0.40;99.90
45906;DHT22;31619;49.008;12.106;2023-04-06T05:58:44;0.40;99.90
45906;DHT22;31619;49.008;12.106;2023-04-06T06:01:10;0.50;99.90
45906;DHT22;31619;49.008;12.106;2023-04-06T06:03:35;0.60;99.90
45906;DHT22;31619;49.008;12.106;2023-04-06T06:06:02;0.60;99.90
45906;DHT22;31619;49.008;12.106;2023-04-06T06:08:29;0.70;99.90
45906;DHT22;31619;49.008;12.106;2023-04-06T06:10:55;0.80;99.90
45906;DHT22;31619;49.008;12.106;2023-04-06T06:13:21;0.80;99.90
45906;DHT22;31619;49.008;12.106;2023-04-06T06:15:47;0.90;99.90
45906;DHT22;31619;49.008;12.106;2023-04-06T06:18:13;1.00;99.90
45906;DHT22;31619;49.008;12.106;2023-04-06T06:20:38;1.10;99.90
45906;DHT22;31619;49.008;12.106;2023-04-06T06:23:04;1.20;99.90
45906;DHT22;31619;49.008;12.106;2023-04-06T06:25:30;1.30;99.90
45906;DHT22;31619;49.008;12.106;2023-04-06T06:27:59;1.50;99.90
45906;DHT22;31619;49.008;12.106;2023-04-06T06:30:25;1.50;99.90
45906;DHT22;31619;49.008;12.106;2023-04-06T06:32:51;1.50;99.90
45906;DHT22;31619;49.008;12.106;2023-04-06T06:35:17;1.60;99.90
45906;DHT22;31619;49.008;12.106;2023-04-06T06:37:43;1.70;99.90
45906;DHT22;31619;49.008;12.106;2023-04-06T06:40:09;1.80;99.90
45906;DHT22;31619;49.008;12.106;2023-04-06T06:42:36;1.80;99.90
45906;DHT22;31619;49.008;12.106;2023-04-06T06:45:02;1.90;99.90
45906;DHT22;31619;49.008;12.106;2023-04-06T06:47:28;2.00;99.90
45906;DHT22;31619;49.008;12.106;2023-04-06T06:49:53;2.10;99.90
45906;DHT22;31619;49.008;12.106;2023-04-06T06:52:19;2.30;99.90
45906;DHT22;31619;49.008;12.106;2023-04-06T06:54:45;2.40;99.90
45906;DHT22;31619;49.008;12.106;2023-04-06T06:57:10;2.50;99.90
45906;DHT22;31619;49.008;12.106;2023-04-06T06:59:36;2.60;99.90
45906;DHT22;31619;49.008;12.106;2023-04-06T07:02:01;2.70;99.90
45906;DHT22;31619;49.008;12.106;2023-04-06T07:04:27;2.80;99.90
45906;DHT22;31619;49.008;12.106;2023-04-06T07:06:53;2.90;99.90
45906;DHT22;31619;49.008;12.106;2023-04-06T07:09:18;2.90;99.90
45906;DHT22;31619;49.008;12.106;2023-04-06T07:11:44;3.10;99.90
45906;DHT22;31619;49.008;12.106;2023-04-06T07:14:10;3.20;99.90
45906;DHT22;31619;49.008;12.106;2023-04-06T07:16:37;3.30;99.90
45906;DHT22;31619;49.008;12.106;2023-04-06T07:19:02;3.40;99.90
45906;DHT22;31619;49.008;12.106;2023-04-06T07:21:28;3.50;99.90
45906;DHT22;31619;49.008;12.106;2023-04-06T07:23:54;3.40;99.90
45906;DHT22;31619;49.008;12.106;2023-04-06T07:26:19;3.50;99.90
45906;DHT22;31619;49.008;12.106;2023-04-06T07:28:45;3.60;99.90
45906;DHT22;31619;49.008;12.106;2023-04-06T07:31:12;3.70;99.90
45906;DHT22;31619;49.008;12.106;2023-04-06T07:33:37;3.80;99.90
45906;DHT22;31619;49.008;12.106;2023-04-06T07:36:03;3.90;99.90
45906;DHT22;31619;49.008;12.106;2023-04-06T07:38:30;4.00;99.90
45906;DHT22;31619;49.008;12.106;2023-04-06T07:40:55;4.10;99.90
45906;DHT22;31619;49.008;12.106;2023-04-06T07:43:21;4.20;99.90
45906;DHT22;31619;49.008;12.106;2023-04-06T07:45:47;4.30;99.90
45906;DHT22;31619;49.008;12.106;2023-04-06T07:48:12;4.40;99.90
45906;DHT22;31619;49.008;12.106;2023-04-06T07:50:38;4.30;98.90
45906;DHT22;31619;49.008;12.106;2023-04-06T07:53:04;4.30;99.20
45906;DHT22;31619;49.008;12.106;2023-04-06T07:55:30;4.50;98.50
45906;DHT22;31619;49.008;12.106;2023-04-06T07:57:56;4.50;98.50
45906;DHT22;31619;49.008;12.106;2023-04-06T08:00:21;4.70;98.10
45906;DHT22;31619;49.008;12.106;2023-04-06T08:02:47;4.80;97.40
45906;DHT22;31619;49.008;12.106;2023-04-06T08:05:13;4.80;97.20
45906;DHT22;31619;49.008;12.106;2023-04-06T08:07:38;5.00;97.50
45906;DHT22;31619;49.008;12.106;2023-04-06T08:10:04;5.00;96.40
45906;DHT22;31619;49.008;12.106;2023-04-06T08:12:31;5.10;95.30
45906;DHT22;31619;49.008;12.106;2023-04-06T08:14:57;5.20;94.90
45906;DHT22;31619;49.008;12.106;2023-04-06T08:17:22;5.40;94.80
45906;DHT22;31619;49.008;12.106;2023-04-06T08:19:48;5.40;94.20
45906;DHT22;31619;49.008;12.106;2023-04-06T08:22:14;5.60;94.30
45906;DHT22;31619;49.008;12.106;2023-04-06T08:24:40;5.70;94.10
45906;DHT22;31619;49.008;12.106;2023-04-06T08:27:06;5.70;93.80
45906;DHT22;31619;49.008;12.106;2023-04-06T08:29:31;5.80;93.50
45906;DHT22;31619;49.008;12.106;2023-04-06T08:31:57;5.90;93.10
45906;DHT22;31619;49.008;12.106;2023-04-06T08:34:23;5.90;92.70
45906;DHT22;31619;49.008;12.106;2023-04-06T08:36:49;6.00;92.80
45906;DHT22;31619;49.008;12.106;2023-04-06T08:39:15;6.10;92.70
45906;DHT22;31619;49.008;12.106;2023-04-06T08:41:44;6.20;94.40
45906;DHT22;31619;49.008;12.106;2023-04-06T08:44:11;6.40;92.20
45906;DHT22;31619;49.008;12.106;2023-04-06T08:46:37;6.50;91.60
45906;DHT22;31619;49.008;12.106;2023-04-06T08:49:03;6.70;91.10
45906;DHT22;31619;49.008;12.106;2023-04-06T08:51:32;6.80;90.70
45906;DHT22;31619;49.008;12.106;2023-04-06T08:53:59;7.00;88.60
45906;DHT22;31619;49.008;12.106;2023-04-06T08:56:26;7.20;88.30
45906;DHT22;31619;49.008;12.106;2023-04-06T08:58:53;7.40;86.00
45906;DHT22;31619;49.008;12.106;2023-04-06T09:01:27;7.60;86.50
45906;DHT22;31619;49.008;12.106;2023-04-06T09:03:57;7.90;85.80
45906;DHT22;31619;49.008;12.106;2023-04-06T09:06:24;8.60;83.90
45906;DHT22;31619;49.008;12.106;2023-04-06T09:08:52;10.30;77.50
45906;DHT22;31619;49.008;12.106;2023-04-06T09:11:17;12.80;71.50
45906;DHT22;31619;49.008;12.106;2023-04-06T09:13:50;15.10;62.70
45906;DHT22;31619;49.008;12.106;2023-04-06T09:16:16;17.30;56.10
45906;DHT22;31619;49.008;12.106;2023-04-06T09:18:42;18.90;47.80
45906;DHT22;31619;49.008;12.106;2023-04-06T09:21:08;20.00;45.50
45906;DHT22;31619;49.008;12.106;2023-04-06T09:23:34;21.00;43.60
45906;DHT22;31619;49.008;12.106;2023-04-06T09:28:50;22.90;39.60
45906;DHT22;31619;49.008;12.106;2023-04-06T09:31:22;23.60;39.20
45906;DHT22;31619;49.008;12.106;2023-04-06T09:33:48;24.20;38.40
45906;DHT22;31619;49.008;12.106;2023-04-06T09:36:14;24.10;35.40
45906;DHT22;31619;49.008;12.106;2023-04-06T09:38:55;24.70;35.20
45906;DHT22;31619;49.008;12.106;2023-04-06T09:41:23;25.30;33.70
45906;DHT22;31619;49.008;12.106;2023-04-06T09:44:01;25.40;33.70
45906;DHT22;31619;49.008;12.106;2023-04-06T09:46:27;25.30;34.20
45906;DHT22;31619;49.008;12.106;2023-04-06T09:48:56;25.50;34.60
45906;DHT22;31619;49.008;12.106;2023-04-06T09:51:23;26.50;34.40
45906;DHT22;31619;49.008;12.106;2023-04-06T09:53:52;27.20;32.80
45906;DHT22;31619;49.008;12.106;2023-04-06T09:56:24;27.40;32.00
45906;DHT22;31619;49.008;12.106;2023-04-06T09:58:56;27.70;31.60
45906;DHT22;31619;49.008;12.106;2023-04-06T10:01:22;27.80;31.30
45906;DHT22;31619;49.008;12.106;2023-04-06T10:06:27;28.70;30.80
45906;DHT22;31619;49.008;12.106;2023-04-06T10:08:55;29.20;30.00
45906;DHT22;31619;49.008;12.106;2023-04-06T10:11:22;29.10;30.00
45906;DHT22;31619;49.008;12.106;2023-04-06T10:13:48;28.10;29.60
45906;DHT22;31619;49.008;12.106;2023-04-06T10:16:15;27.10;30.80
45906;DHT22;31619;49.008;12.106;2023-04-06T10:18:46;26.70;30.20
45906;DHT22;31619;49.008;12.106;2023-04-06T10:21:16;27.40;30.90
45906;DHT22;31619;49.008;12.106;2023-04-06T10:23:55;27.90;29.90
45906;DHT22;31619;49.008;12.106;2023-04-06T10:26:23;28.20;30.00
45906;DHT22;31619;49.008;12.106;2023-04-06T10:28:50;28.50;30.00
45906;DHT22;31619;49.008;12.106;2023-04-06T10:31:27;28.50;29.70
45906;DHT22;31619;49.008;12.106;2023-04-06T10:33:57;28.90;29.70
45906;DHT22;31619;49.008;12.106;2023-04-06T10:36:25;29.60;29.60
45906;DHT22;31619;49.008;12.106;2023-04-06T10:38:59;30.30;29.20
45906;DHT22;31619;49.008;12.106;2023-04-06T10:41:36;30.10;29.00
45906;DHT22;31619;49.008;12.106;2023-04-06T10:44:02;30.60;28.90
45906;DHT22;31619;49.008;12.106;2023-04-06T10:46:32;31.10;28.80
45906;DHT22;31619;49.008;12.106;2023-04-06T10:49:09;31.60;27.40
45906;DHT22;31619;49.008;12.106;2023-04-06T10:51:38;31.30;28.00
45906;DHT22;31619;49.008;12.106;2023-04-06T10:54:05;31.10;28.00
45906;DHT22;31619;49.008;12.106;2023-04-06T10:56:33;30.70;27.80
45906;DHT22;31619;49.008;12.106;2023-04-06T10:59:02;31.10;27.90
45906;DHT22;31619;49.008;12.106;2023-04-06T11:01:27;31.50;27.60
45906;DHT22;31619;49.008;12.106;2023-04-06T11:03:55;30.90;28.30
45906;DHT22;31619;49.008;12.106;2023-04-06T11:06:25;30.70;27.70
45906;DHT22;31619;49.008;12.106;2023-04-06T11:08:53;30.70;27.90
45906;DHT22;31619;49.008;12.106;2023-04-06T11:11:20;29.60;27.60
45906;DHT22;31619;49.008;12.106;2023-04-06T11:13:49;29.00;28.20
45906;DHT22;31619;49.008;12.106;2023-04-06T11:16:20;29.20;28.20
45906;DHT22;31619;49.008;12.106;2023-04-06T11:19:23;29.50;28.00
45906;DHT22;31619;49.008;12.106;2023-04-06T11:21:48;29.10;27.50
45906;DHT22;31619;49.008;12.106;2023-04-06T11:24:16;29.00;28.00
45906;DHT22;31619;49.008;12.106;2023-04-06T11:26:50;29.30;30.00
45906;DHT22;31619;49.008;12.106;2023-04-06T11:29:27;30.20;27.80
45906;DHT22;31619;49.008;12.106;2023-04-06T11:32:06;31.00;27.90
45906;DHT22;31619;49.008;12.106;2023-04-06T11:34:37;29.90;28.10
45906;DHT22;31619;49.008;12.106;2023-04-06T11:37:13;29.00;28.60
45906;DHT22;31619;49.008;12.106;2023-04-06T11:39:42;28.00;29.00
45906;DHT22;31619;49.008;12.106;2023-04-06T11:42:08;27.50;29.30
45906;DHT22;31619;49.008;12.106;2023-04-06T11:44:40;27.10;29.60
45906;DHT22;31619;49.008;12.106;2023-04-06T11:47:08;27.70;29.10
45906;DHT22;31619;49.008;12.106;2023-04-06T11:49:37;27.70;29.00
45906;DHT22;31619;49.008;12.106;2023-04-06T11:52:03;26.30;28.80
45906;DHT22;31619;49.008;12.106;2023-04-06T11:54:39;25.10;30.30
45906;DHT22;31619;49.008;12.106;2023-04-06T11:57:07;26.00;30.20
45906;DHT22;31619;49.008;12.106;2023-04-06T11:59:33;27.00;29.10
45906;DHT22;31619;49.008;12.106;2023-04-06T12:01:59;26.20;29.10
45906;DHT22;31619;49.008;12.106;2023-04-06T12:04:26;25.50;30.30
45906;DHT22;31619;49.008;12.106;2023-04-06T12:06:51;25.30;31.90
45906;DHT22;31619;49.008;12.106;2023-04-06T12:09:18;26.10;30.80
45906;DHT22;31619;49.008;12.106;2023-04-06T12:11:44;26.40;29.30
45906;DHT22;31619;49.008;12.106;2023-04-06T12:14:10;25.30;31.30
45906;DHT22;31619;49.008;12.106;2023-04-06T12:16:35;25.50;30.20
45906;DHT22;31619;49.008;12.106;2023-04-06T12:19:02;24.70;31.30
45906;DHT22;31619;49.008;12.106;2023-04-06T12:21:28;24.90;32.50
45906;DHT22;31619;49.008;12.106;2023-04-06T12:23:54;25.40;30.90
45906;DHT22;31619;49.008;12.106;2023-04-06T12:26:20;25.40;30.90
45906;DHT22;31619;49.008;12.106;2023-04-06T12:28:47;24.70;32.10
45906;DHT22;31619;49.008;12.106;2023-04-06T12:31:22;24.20;33.50
45906;DHT22;31619;49.008;12.106;2023-04-06T12:33:51;23.90;32.60
45906;DHT22;31619;49.008;12.106;2023-04-06T12:36:18;24.20;33.10
45906;DHT22;31619;49.008;12.106;2023-04-06T12:38:46;25.10;33.10
45906;DHT22;31619;49.008;12.106;2023-04-06T12:41:12;26.40;31.00
45906;DHT22;31619;49.008;12.106;2023-04-06T12:43:39;27.10;30.00
45906;DHT22;31619;49.008;12.106;2023-04-06T12:46:05;27.60;29.30
45906;DHT22;31619;49.008;12.106;2023-04-06T12:48:31;26.90;30.30
45906;DHT22;31619;49.008;12.106;2023-04-06T12:50:58;27.00;29.60
45906;DHT22;31619;49.008;12.106;2023-04-06T12:53:24;27.10;29.60
45906;DHT22;31619;49.008;12.106;2023-04-06T12:55:51;27.20;30.80
45906;DHT22;31619;49.008;12.106;2023-04-06T12:58:17;27.70;29.40
45906;DHT22;31619;49.008;12.106;2023-04-06T13:00:43;27.20;29.90
45906;DHT22;31619;49.008;12.106;2023-04-06T13:03:09;27.90;30.00
45906;DHT22;31619;49.008;12.106;2023-04-06T13:05:34;28.50;29.30
45906;DHT22;31619;49.008;12.106;2023-04-06T13:08:00;28.40;28.30
45906;DHT22;31619;49.008;12.106;2023-04-06T13:10:26;27.20;30.10
45906;DHT22;31619;49.008;12.106;2023-04-06T13:12:52;27.00;31.30
45906;DHT22;31619;49.008;12.106;2023-04-06T13:15:18;27.30;29.90
45906;DHT22;31619;49.008;12.106;2023-04-06T13:17:44;27.40;30.80
45906;DHT22;31619;49.008;12.106;2023-04-06T13:20:09;27.40;29.90
45906;DHT22;31619;49.008;12.106;2023-04-06T13:22:35;27.10;29.70
45906;DHT22;31619;49.008;12.106;2023-04-06T13:25:01;27.20;30.30
45906;DHT22;31619;49.008;12.106;2023-04-06T13:27:27;27.90;29.70
45906;DHT22;31619;49.008;12.106;2023-04-06T13:29:53;28.30;29.00
45906;DHT22;31619;49.008;12.106;2023-04-06T13:32:20;28.70;28.90
45906;DHT22;31619;49.008;12.106;2023-04-06T13:34:46;29.00;28.20
45906;DHT22;31619;49.008;12.106;2023-04-06T13:37:14;29.90;28.80
45906;DHT22;31619;49.008;12.106;2023-04-06T13:39:40;31.10;28.10
45906;DHT22;31619;49.008;12.106;2023-04-06T13:42:06;32.90;27.60
45906;DHT22;31619;49.008;12.106;2023-04-06T13:44:32;34.30;27.00
45906;DHT22;31619;49.008;12.106;2023-04-06T13:46:58;35.70;25.70
45906;DHT22;31619;49.008;12.106;2023-04-06T13:49:24;36.90;25.40
45906;DHT22;31619;49.008;12.106;2023-04-06T13:51:49;37.00;25.10
45906;DHT22;31619;49.008;12.106;2023-04-06T13:54:15;36.00;25.70
45906;DHT22;31619;49.008;12.106;2023-04-06T13:56:41;36.30;25.70
45906;DHT22;31619;49.008;12.106;2023-04-06T13:59:06;37.20;24.80
45906;DHT22;31619;49.008;12.106;2023-04-06T14:01:32;37.20;25.60
45906;DHT22;31619;49.008;12.106;2023-04-06T14:03:57;37.80;25.30
45906;DHT22;31619;49.008;12.106;2023-04-06T14:06:23;38.80;25.10
45906;DHT22;31619;49.008;12.106;2023-04-06T14:08:49;39.50;24.50
45906;DHT22;31619;49.008;12.106;2023-04-06T14:11:14;39.50;25.20
45906;DHT22;31619;49.008;12.106;2023-04-06T14:13:40;39.90;24.60
45906;DHT22;31619;49.008;12.106;2023-04-06T14:16:07;40.80;24.10
45906;DHT22;31619;49.008;12.106;2023-04-06T14:18:33;42.10;23.90
45906;DHT22;31619;49.008;12.106;2023-04-06T14:21:00;42.90;23.40
45906;DHT22;31619;49.008;12.106;2023-04-06T14:23:28;43.10;22.60
45906;DHT22;31619;49.008;12.106;2023-04-06T14:26:04;42.80;22.90
45906;DHT22;31619;49.008;12.106;2023-04-06T14:28:31;42.90;23.30
45906;DHT22;31619;49.008;12.106;2023-04-06T14:30:59;43.80;22.90
45906;DHT22;31619;49.008;12.106;2023-04-06T14:33:26;43.50;22.60
45906;DHT22;31619;49.008;12.106;2023-04-06T14:35:51;43.50;23.30
45906;DHT22;31619;49.008;12.106;2023-04-06T14:38:17;44.00;22.70
45906;DHT22;31619;49.008;12.106;2023-04-06T14:40:42;44.50;22.50
45906;DHT22;31619;49.008;12.106;2023-04-06T14:43:08;42.10;22.70
45906;DHT22;31619;49.008;12.106;2023-04-06T14:45:34;41.40;22.80
45906;DHT22;31619;49.008;12.106;2023-04-06T14:48:04;38.20;23.50
45906;DHT22;31619;49.008;12.106;2023-04-06T14:50:32;36.50;24.20
45906;DHT22;31619;49.008;12.106;2023-04-06T14:52:58;36.40;24.90
45906;DHT22;31619;49.008;12.106;2023-04-06T14:55:24;37.50;24.70
45906;DHT22;31619;49.008;12.106;2023-04-06T14:57:50;38.50;23.70
45906;DHT22;31619;49.008;12.106;2023-04-06T15:00:15;34.90;24.20
45906;DHT22;31619;49.008;12.106;2023-04-06T15:02:41;32.80;25.10
45906;DHT22;31619;49.008;12.106;2023-04-06T15:05:08;29.80;26.70
45906;DHT22;31619;49.008;12.106;2023-04-06T15:07:34;27.30;28.70
45906;DHT22;31619;49.008;12.106;2023-04-06T15:09:59;26.90;29.00
45906;DHT22;31619;49.008;12.106;2023-04-06T15:12:25;29.00;27.60
45906;DHT22;31619;49.008;12.106;2023-04-06T15:14:51;30.90;26.40
45906;DHT22;31619;49.008;12.106;2023-04-06T15:17:16;32.20;25.70
45906;DHT22;31619;49.008;12.106;2023-04-06T15:19:42;33.40;25.20
45906;DHT22;31619;49.008;12.106;2023-04-06T15:22:07;32.90;26.00